Time;durP1;ratioP1;P1;durP2;ratioP2;P2;SDS_P1;SDS_P2;PMS_P1;PMS_P2;Temp;Humidity;BMP_temperature;BMP_pressure;BME280_temperature;BME280_humidity;BME280_pressure;Samples;Min_cycle;Max_cycle;Signal;HPM_P1;HPM_P2
2022/09/10 00:01:07;;;;;;;;;;;;;;;;;;5017002;28;19920;-27
2022/09/10 00:03:33;;;;;;;;;;;;;;;;;;5016696;28;19925;-27
2022/09/10 00:05:59;;;;;;;;;;;;;;;;;;5016793;28;19921;-27
2022/09/10 00:08:25;;;;;;;;;;;;;;;;;;5017012;28;19913;-27
2022/09/10 00:10:51;;;;;;;;;;;;;;;;;;5016731;28;19921;-26
2022/09/10 00:13:17;;;;;;;;;;;;;;;;;;5016908;28;20004;-27
2022/09/10 00:15:44;;;;;;;;;;;;;;;;;;5017187;28;20360;-27
2022/09/10 00:18:10;;;;;;;;;;;;;;;;;;5016882;28;19913;-26
2022/09/10 00:20:36;;;;;;;;;;;;;;;;;;5016511;28;20245;-27
2022/09/10 00:23:02;;;;;;;;;;;;;;;;;;5016433;28;19910;-27
2022/09/10 00:25:28;;;;;;;;;;;;;;;;;;5016461;28;19949;-27
2022/09/10 00:27:53;;;;;;;;;;;;;;;;;;5016326;28;20020;-27
2022/09/10 00:30:19;;;;;;;;;;;;;;;;;;5016690;28;19910;-27
2022/09/10 00:32:51;;;;;;;;;;;;;;;;;;5015356;28;20008;-26
2022/09/10 00:35:18;;;;;;;;;;;;;;;;;;5016272;28;19913;-27
2022/09/10 00:37:45;;;;;;;;;;;;;;;;;;5016584;28;19948;-27
2022/09/10 00:40:11;;;;;;;;;;;;;;;;;;5015298;28;20345;-27
2022/09/10 00:42:37;;;;;;;;;;;;;;;;;;5016173;28;19910;-27
2022/09/10 00:45:03;;;;;;;;;;;;;;;;;;5016137;28;19917;-27
2022/09/10 00:47:29;;;;;;;;;;;;;;;;;;5015545;28;19924;-27
2022/09/10 00:49:55;;;;;;;;;;;;;;;;;;5016366;28;20256;-26
2022/09/10 00:52:21;;;;;;;;;;;;;;;;;;5015958;28;19924;-27
2022/09/10 00:54:47;;;;;;;;;;;;;;;;;;5015040;28;19992;-26
2022/09/10 00:57:13;;;;;;;;;;;;;;;;;;5016522;28;19917;-27
2022/09/10 00:59:39;;;;;;;;;;;;;;;;;;5016201;28;19910;-26
2022/09/10 01:02:06;;;;;;;;;;;;;;;;;;5015629;28;20233;-28
2022/09/10 01:04:32;;;;;;;;;;;;;;;;;;5015820;28;19921;-27
2022/09/10 01:06:58;;;;;;;;;;;;;;;;;;5015658;28;19941;-27
2022/09/10 01:09:24;;;;;;;;;;;;;;;;;;5015772;28;19948;-27
2022/09/10 01:11:50;;;;;;;;;;;;;;;;;;5015658;28;20311;-27
2022/09/10 01:14:16;;;;;;;;;;;;;;;;;;5015945;28;20325;-27
2022/09/10 01:16:42;;;;;;;;;;;;;;;;;;5015590;28;19914;-27
2022/09/10 01:19:08;;;;;;;;;;;;;;;;;;5016217;28;19909;-27
2022/09/10 01:21:34;;;;;;;;;;;;;;;;;;5015562;28;19913;-27
2022/09/10 01:24:00;;;;;;;;;;;;;;;;;;5015510;28;19909;-27
2022/09/10 01:26:26;;;;;;;;;;;;;;;;;;5016108;28;19921;-27
2022/09/10 01:28:52;;;;;;;;;;;;;;;;;;5015413;28;19963;-27
2022/09/10 01:31:18;;;;;;;;;;;;;;;;;;5015728;28;19936;-27
2022/09/10 01:33:44;;;;;;;;;;;;;;;;;;5015392;28;19909;-27
2022/09/10 01:36:11;;;;;;;;;;;;;;;;;;5015453;28;20008;-27
2022/09/10 01:38:37;;;;;;;;;;;;;;;;;;5015447;28;20264;-26
2022/09/10 01:41:03;;;;;;;;;;;;;;;;;;5015399;28;19917;-26
2022/09/10 01:43:29;;;;;;;;;;;;;;;;;;5015206;28;19913;-26
2022/09/10 01:45:55;;;;;;;;;;;;;;;;;;5015308;28;19909;-27
2022/09/10 01:48:21;;;;;;;;;;;;;;;;;;5015505;28;20294;-27
2022/09/10 01:50:47;;;;;;;;;;;;;;;;;;5015210;28;19914;-27
2022/09/10 01:53:13;;;;;;;;;;;;;;;;;;5015198;28;20048;-27
2022/09/10 01:55:40;;;;;;;;;;;;;;;;;;5015615;28;19924;-27
2022/09/10 01:58:06;;;;;;;;;;;;;;;;;;5016235;28;20260;-27
2022/09/10 02:00:32;;;;;;;;;;;;;;;;;;5019760;28;19910;-26
2022/09/10 02:02:58;;;;;;;;;;;;;;;;;;5018861;28;20008;-27
2022/09/10 02:05:25;;;;;;;;;;;;;;;;;;5019069;28;19964;-27
2022/09/10 02:07:51;;;;;;;;;;;;;;;;;;5018956;28;20356;-27
2022/09/10 02:10:17;;;;;;;;;;;;;;;;;;5019083;28;19909;-27
2022/09/10 02:12:43;;;;;;;;;;;;;;;;;;5019260;28;19929;-27
2022/09/10 02:15:10;;;;;;;;;;;;;;;;;;5018907;28;19914;-27
2022/09/10 02:17:36;;;;;;;;;;;;;;;;;;5019186;28;20319;-27
2022/09/10 02:20:02;;;;;;;;;;;;;;;;;;5019436;28;20222;-27
2022/09/10 02:22:28;;;;;;;;;;;;;;;;;;5018670;28;19913;-27
2022/09/10 02:24:54;;;;;;;;;;;;;;;;;;5019337;28;19917;-27
2022/09/10 02:27:22;;;;;;;;;;;;;;;;;;5018935;28;19944;-27
2022/09/10 02:29:48;;;;;;;;;;;;;;;;;;5018975;28;20010;-26
2022/09/10 02:32:14;;;;;;;;;;;;;;;;;;5019000;28;19914;-27
2022/09/10 02:34:40;;;;;;;;;;;;;;;;;;5019144;28;19918;-27
2022/09/10 02:37:06;;;;;;;;;;;;;;;;;;5018526;28;20313;-27
2022/09/10 02:39:32;;;;;;;;;;;;;;;;;;5018480;28;19945;-27
2022/09/10 02:41:58;;;;;;;;;;;;;;;;;;5018910;28;20325;-27
2022/09/10 02:44:26;;;;;;;;;;;;;;;;;;5018716;28;20277;-26
2022/09/10 02:46:52;;;;;;;;;;;;;;;;;;5018222;28;19914;-27
2022/09/10 02:49:19;;;;;;;;;;;;;;;;;;5018639;28;19964;-27
2022/09/10 02:51:45;;;;;;;;;;;;;;;;;;5018551;28;20255;-26
2022/09/10 02:54:11;;;;;;;;;;;;;;;;;;5018259;28;19992;-27
2022/09/10 02:56:37;;;;;;;;;;;;;;;;;;5018440;28;19913;-27
2022/09/10 02:59:03;;;;;;;;;;;;;;;;;;5018745;28;19924;-27
2022/09/10 03:01:29;;;;;;;;;;;;;;;;;;5018104;28;20027;-27
2022/09/10 03:03:55;;;;;;;;;;;;;;;;;;5017812;28;19968;-27
2022/09/10 03:06:22;;;;;;;;;;;;;;;;;;5018003;28;20374;-27
2022/09/10 03:08:48;;;;;;;;;;;;;;;;;;5017403;28;19923;-27
2022/09/10 03:11:15;;;;;;;;;;;;;;;;;;5017963;28;20008;-27
2022/09/10 03:13:41;;;;;;;;;;;;;;;;;;5017875;28;20303;-27
2022/09/10 03:16:08;;;;;;;;;;;;;;;;;;5017778;28;19914;-27
2022/09/10 03:18:34;;;;;;;;;;;;;;;;;;5017743;28;19961;-26
2022/09/10 03:21:00;;;;;;;;;;;;;;;;;;5017792;28;19941;-27
2022/09/10 03:23:27;;;;;;;;;;;;;;;;;;5017610;28;19921;-27
2022/09/10 03:25:53;;;;;;;;;;;;;;;;;;5017627;28;19948;-27
2022/09/10 03:28:19;;;;;;;;;;;;;;;;;;5018348;28;19928;-27
2022/09/10 03:30:45;;;;;;;;;;;;;;;;;;5017826;28;19913;-27
2022/09/10 03:33:12;;;;;;;;;;;;;;;;;;5017412;28;20368;-27
2022/09/10 03:35:38;;;;;;;;;;;;;;;;;;5017564;28;20285;-27
2022/09/10 03:38:04;;;;;;;;;;;;;;;;;;5017637;28;20257;-27
2022/09/10 03:40:31;;;;;;;;;;;;;;;;;;5017328;28;19921;-27
2022/09/10 03:42:57;;;;;;;;;;;;;;;;;;5017482;28;19944;-27
2022/09/10 03:45:24;;;;;;;;;;;;;;;;;;5017523;28;20008;-27
2022/09/10 03:47:50;;;;;;;;;;;;;;;;;;5017130;28;19917;-27
2022/09/10 03:50:16;;;;;;;;;;;;;;;;;;5017421;28;19909;-27
2022/09/10 03:52:42;;;;;;;;;;;;;;;;;;5017077;28;20017;-27
2022/09/10 03:55:09;;;;;;;;;;;;;;;;;;5017200;28;19914;-27
2022/09/10 03:57:35;;;;;;;;;;;;;;;;;;5017008;28;19909;-27
2022/09/10 04:00:01;;;;;;;;;;;;;;;;;;5016960;28;19945;-28
2022/09/10 04:02:27;;;;;;;;;;;;;;;;;;5016775;28;19917;-27
2022/09/10 04:04:53;;;;;;;;;;;;;;;;;;5016669;28;20357;-26
2022/09/10 04:07:20;;;;;;;;;;;;;;;;;;5017351;28;19960;-27
2022/09/10 04:09:46;;;;;;;;;;;;;;;;;;5016690;28;19983;-27
2022/09/10 04:12:12;;;;;;;;;;;;;;;;;;5016732;28;19917;-27
2022/09/10 04:14:38;;;;;;;;;;;;;;;;;;5016896;28;19909;-26
2022/09/10 04:17:04;;;;;;;;;;;;;;;;;;5017358;28;19918;-27
2022/09/10 04:19:30;;;;;;;;;;;;;;;;;;5016485;28;19913;-27
2022/09/10 04:21:56;;;;;;;;;;;;;;;;;;5016047;28;19914;-27
2022/09/10 04:24:22;;;;;;;;;;;;;;;;;;5016547;28;19909;-27
2022/09/10 04:26:48;;;;;;;;;;;;;;;;;;5016160;28;19936;-27
2022/09/10 04:29:15;;;;;;;;;;;;;;;;;;5016619;28;19909;-26
2022/09/10 04:31:41;;;;;;;;;;;;;;;;;;5016154;28;20350;-27
2022/09/10 04:34:07;;;;;;;;;;;;;;;;;;5016119;28;20253;-27
2022/09/10 04:36:33;;;;;;;;;;;;;;;;;;5016658;28;19921;-27
2022/09/10 04:38:59;;;;;;;;;;;;;;;;;;5016432;28;20233;-28
2022/09/10 04:41:25;;;;;;;;;;;;;;;;;;5016132;28;20427;-27
2022/09/10 04:43:51;;;;;;;;;;;;;;;;;;5015999;28;19910;-28
2022/09/10 04:46:17;;;;;;;;;;;;;;;;;;5016064;28;19920;-28
2022/09/10 04:48:43;;;;;;;;;;;;;;;;;;5016192;28;19948;-28
2022/09/10 04:51:12;;;;;;;;;;;;;;;;;;5015957;28;19971;-27
2022/09/10 04:53:38;;;;;;;;;;;;;;;;;;5015650;28;19913;-27
2022/09/10 04:56:03;;;;;;;;;;;;;;;;;;5015401;28;20277;-27
2022/09/10 04:58:30;;;;;;;;;;;;;;;;;;5015290;28;19909;-27
2022/09/10 05:00:56;;;;;;;;;;;;;;;;;;5015566;28;19914;-27
2022/09/10 05:03:22;;;;;;;;;;;;;;;;;;5015002;28;19925;-28
2022/09/10 05:05:48;;;;;;;;;;;;;;;;;;5015329;28;20006;-27
2022/09/10 05:08:14;;;;;;;;;;;;;;;;;;5015484;28;20226;-27
2022/09/10 05:10:40;;;;;;;;;;;;;;;;;;5015190;28;20423;-27
2022/09/10 05:13:06;;;;;;;;;;;;;;;;;;5015332;28;19953;-27
2022/09/10 05:15:34;;;;;;;;;;;;;;;;;;5015076;28;19924;-27
2022/09/10 05:18:00;;;;;;;;;;;;;;;;;;5014983;28;20325;-27
2022/09/10 05:20:26;;;;;;;;;;;;;;;;;;5015309;28;19920;-27
2022/09/10 05:22:53;;;;;;;;;;;;;;;;;;5015304;28;20328;-27
2022/09/10 05:25:19;;;;;;;;;;;;;;;;;;5014811;28;19925;-27
2022/09/10 05:27:45;;;;;;;;;;;;;;;;;;5015138;28;19914;-27
2022/09/10 05:30:11;;;;;;;;;;;;;;;;;;5014814;28;19940;-27
2022/09/10 05:32:38;;;;;;;;;;;;;;;;;;5014600;28;20397;-27
2022/09/10 05:35:04;;;;;;;;;;;;;;;;;;5014966;28;19910;-27
2022/09/10 05:37:30;;;;;;;;;;;;;;;;;;5013845;28;19948;-27
2022/09/10 05:39:56;;;;;;;;;;;;;;;;;;5015411;28;19909;-27
2022/09/10 05:42:22;;;;;;;;;;;;;;;;;;5014803;28;20016;-27
2022/09/10 05:44:49;;;;;;;;;;;;;;;;;;5015184;28;19946;-27
2022/09/10 05:47:15;;;;;;;;;;;;;;;;;;5014609;28;19917;-27
2022/09/10 05:49:41;;;;;;;;;;;;;;;;;;5015004;28;19917;-27
2022/09/10 05:52:08;;;;;;;;;;;;;;;;;;5013668;28;19940;-27
2022/09/10 05:54:34;;;;;;;;;;;;;;;;;;5015421;28;19925;-27
2022/09/10 05:57:00;;;;;;;;;;;;;;;;;;5013607;28;19917;-27
2022/09/10 05:59:26;;;;;;;;;;;;;;;;;;5014909;28;19916;-27
2022/09/10 06:01:52;;;;;;;;;;;;;;;;;;5014930;28;19920;-27
2022/09/10 06:04:18;;;;;;;;;;;;;;;;;;5014709;28;20265;-27
2022/09/10 06:06:44;;;;;;;;;;;;;;;;;;5014807;28;20012;-27
2022/09/10 06:09:10;;;;;;;;;;;;;;;;;;5014970;28;20345;-27
2022/09/10 06:11:36;;;;;;;;;;;;;;;;;;5014512;28;19930;-27
2022/09/10 06:14:02;;;;;;;;;;;;;;;;;;5014405;28;19918;-28
2022/09/10 06:16:28;;;;;;;;;;;;;;;;;;5014800;28;20357;-27
2022/09/10 06:18:55;;;;;;;;;;;;;;;;;;5014805;28;19913;-27
2022/09/10 06:21:23;;;;;;;;;;;;;;;;;;5014412;28;19940;-27
2022/09/10 06:23:49;;;;;;;;;;;;;;;;;;5014616;28;19920;-27
2022/09/10 06:26:18;;;;;;;;;;;;;;;;;;5014358;28;19914;-27
2022/09/10 06:28:44;;;;;;;;;;;;;;;;;;5014571;28;19925;-27
2022/09/10 06:31:15;;;;;;;;;;;;;;;;;;5014651;28;19928;-27
2022/09/10 06:33:41;;;;;;;;;;;;;;;;;;5014412;28;20008;-27
2022/09/10 06:36:07;;;;;;;;;;;;;;;;;;5014578;28;19917;-27
2022/09/10 06:38:34;;;;;;;;;;;;;;;;;;5014280;28;19923;-27
2022/09/10 06:41:00;;;;;;;;;;;;;;;;;;5014243;28;19914;-27
2022/09/10 06:43:26;;;;;;;;;;;;;;;;;;5014146;28;19917;-27
2022/09/10 06:45:52;;;;;;;;;;;;;;;;;;5017845;28;19917;-27
2022/09/10 06:48:18;;;;;;;;;;;;;;;;;;5017953;28;19949;-28
2022/09/10 06:50:44;;;;;;;;;;;;;;;;;;5017698;28;20315;-27
2022/09/10 06:53:10;;;;;;;;;;;;;;;;;;5016701;28;19924;-27
2022/09/10 06:55:36;;;;;;;;;;;;;;;;;;5016657;28;20359;-27
2022/09/10 06:58:03;;;;;;;;;;;;;;;;;;5017641;28;19913;-27
2022/09/10 07:00:31;;;;;;;;;;;;;;;;;;5017596;28;19917;-27
2022/09/10 07:02:56;;;;;;;;;;;;;;;;;;5017710;28;19921;-27
2022/09/10 07:05:22;;;;;;;;;;;;;;;;;;5017692;28;20056;-27
2022/09/10 07:07:48;;;;;;;;;;;;;;;;;;5017696;28;19917;-27
2022/09/10 07:10:14;;;;;;;;;;;;;;;;;;5017683;28;19909;-27
2022/09/10 07:12:40;;;;;;;;;;;;;;;;;;5017382;28;20021;-27
2022/09/10 07:15:06;;;;;;;;;;;;;;;;;;5017631;28;19914;-27
2022/09/10 07:17:32;;;;;;;;;;;;;;;;;;5017362;28;20420;-27
2022/09/10 07:19:58;;;;;;;;;;;;;;;;;;5017320;28;19931;-27
2022/09/10 07:22:24;;;;;;;;;;;;;;;;;;5017418;28;20382;-27
2022/09/10 07:24:50;;;;;;;;;;;;;;;;;;5017286;28;19941;-27
2022/09/10 07:27:17;;;;;;;;;;;;;;;;;;5017193;28;20308;-27
2022/09/10 07:29:43;;;;;;;;;;;;;;;;;;5017223;28;20024;-27
2022/09/10 07:32:09;;;;;;;;;;;;;;;;;;5015987;28;19917;-27
2022/09/10 07:34:36;;;;;;;;;;;;;;;;;;5016925;28;19920;-27
2022/09/10 07:37:02;;;;;;;;;;;;;;;;;;5017179;28;20279;-27
2022/09/10 07:39:29;;;;;;;;;;;;;;;;;;5017056;28;19992;-27
2022/09/10 07:41:55;;;;;;;;;;;;;;;;;;5016941;28;19914;-27
2022/09/10 07:44:21;;;;;;;;;;;;;;;;;;5017404;28;19996;-27
2022/09/10 07:46:47;;;;;;;;;;;;;;;;;;5016719;28;19925;-27
2022/09/10 07:49:13;;;;;;;;;;;;;;;;;;5016877;28;19923;-27
2022/09/10 07:51:39;;;;;;;;;;;;;;;;;;5017063;28;19913;-26
2022/09/10 07:54:04;;;;;;;;;;;;;;;;;;5016722;28;19917;-26
2022/09/10 07:56:31;;;;;;;;;;;;;;;;;;5015313;28;20028;-27
2022/09/10 07:58:57;;;;;;;;;;;;;;;;;;5015473;28;20368;-27
2022/09/10 08:01:23;;;;;;;;;;;;;;;;;;5016216;28;19913;-27
2022/09/10 08:03:49;;;;;;;;;;;;;;;;;;5016084;28;19932;-27
2022/09/10 08:06:15;;;;;;;;;;;;;;;;;;5016447;28;19913;-26
2022/09/10 08:08:41;;;;;;;;;;;;;;;;;;5016175;28;19940;-27
2022/09/10 08:11:07;;;;;;;;;;;;;;;;;;5016471;28;19924;-27
2022/09/10 08:13:33;;;;;;;;;;;;;;;;;;5016089;28;19913;-26
2022/09/10 08:15:59;;;;;;;;;;;;;;;;;;5016552;28;20012;-27
2022/09/10 08:18:25;;;;;;;;;;;;;;;;;;5016342;28;19909;-27
2022/09/10 08:20:52;;;;;;;;;;;;;;;;;;5016358;28;20300;-27
2022/09/10 08:23:18;;;;;;;;;;;;;;;;;;5016275;28;19948;-27
2022/09/10 08:25:44;;;;;;;;;;;;;;;;;;5015892;28;20336;-27
2022/09/10 08:28:10;;;;;;;;;;;;;;;;;;5015808;28;19984;-27
2022/09/10 08:30:36;;;;;;;;;;;;;;;;;;5016102;28;19913;-27
2022/09/10 08:33:02;;;;;;;;;;;;;;;;;;5015886;28;19964;-27
2022/09/10 08:35:28;;;;;;;;;;;;;;;;;;5016018;28;20346;-27
2022/09/10 08:37:54;;;;;;;;;;;;;;;;;;5015658;28;19924;-27
2022/09/10 08:40:22;;;;;;;;;;;;;;;;;;5015745;28;20023;-28
2022/09/10 08:42:49;;;;;;;;;;;;;;;;;;5015512;28;20071;-27
2022/09/10 08:45:14;;;;;;;;;;;;;;;;;;5015657;28;19929;-27
2022/09/10 08:47:40;;;;;;;;;;;;;;;;;;5015550;28;19918;-27
2022/09/10 08:50:12;;;;;;;;;;;;;;;;;;5016383;28;19968;-27
2022/09/10 08:52:38;;;;;;;;;;;;;;;;;;5015480;28;19920;-27
2022/09/10 08:55:04;;;;;;;;;;;;;;;;;;5015569;28;20004;-27
2022/09/10 08:57:30;;;;;;;;;;;;;;;;;;5015337;28;19921;-27
2022/09/10 08:59:56;;;;;;;;;;;;;;;;;;5015309;28;19909;-27
2022/09/10 09:02:21;;;;;;;;;;;;;;;;;;5015189;28;20000;-27
2022/09/10 09:04:47;;;;;;;;;;;;;;;;;;5015343;28;20305;-27
2022/09/10 09:07:14;;;;;;;;;;;;;;;;;;5014687;28;20280;-27
2022/09/10 09:09:40;;;;;;;;;;;;;;;;;;5015498;28;19933;-27
2022/09/10 09:12:06;;;;;;;;;;;;;;;;;;5015368;28;19914;-28
2022/09/10 09:14:32;;;;;;;;;;;;;;;;;;5015707;28;19914;-28
2022/09/10 09:16:58;;;;;;;;;;;;;;;;;;5015192;28;19920;-27
2022/09/10 09:19:25;;;;;;;;;;;;;;;;;;5015444;28;19932;-27
2022/09/10 09:21:51;;;;;;;;;;;;;;;;;;5015297;28;19913;-27
2022/09/10 09:24:17;;;;;;;;;;;;;;;;;;5015510;28;20380;-27
2022/09/10 09:26:43;;;;;;;;;;;;;;;;;;5015020;28;19996;-27
2022/09/10 09:29:08;;;;;;;;;;;;;;;;;;5015259;28;19994;-27
2022/09/10 09:31:35;;;;;;;;;;;;;;;;;;5015075;28;20432;-27
2022/09/10 09:34:01;;;;;;;;;;;;;;;;;;5014864;28;19914;-27
2022/09/10 09:36:28;;;;;;;;;;;;;;;;;;5015223;28;20000;-27
2022/09/10 09:38:55;;;;;;;;;;;;;;;;;;5014870;28;20324;-27
2022/09/10 09:41:21;;;;;;;;;;;;;;;;;;5014925;28;19914;-27
2022/09/10 09:43:48;;;;;;;;;;;;;;;;;;5014761;28;20317;-27
2022/09/10 09:46:14;;;;;;;;;;;;;;;;;;5014828;28;19914;-27
2022/09/10 09:48:40;;;;;;;;;;;;;;;;;;5014653;28;20021;-27
2022/09/10 09:51:06;;;;;;;;;;;;;;;;;;5014753;28;19968;-27
2022/09/10 09:53:32;;;;;;;;;;;;;;;;;;5014562;28;20242;-27
2022/09/10 09:55:58;;;;;;;;;;;;;;;;;;5015024;28;19914;-27
2022/09/10 09:58:27;;;;;;;;;;;;;;;;;;5014650;28;20268;-27
2022/09/10 10:00:53;;;;;;;;;;;;;;;;;;5014788;28;19921;-27
2022/09/10 10:03:19;;;;;;;;;;;;;;;;;;5014410;28;19922;-27
2022/09/10 10:05:45;;;;;;;;;;;;;;;;;;5014969;28;20225;-28
2022/09/10 10:08:12;;;;;;;;;;;;;;;;;;5014572;28;19917;-27
2022/09/10 10:10:38;;;;;;;;;;;;;;;;;;5014645;28;19909;-27
2022/09/10 10:13:04;;;;;;;;;;;;;;;;;;5015261;28;19996;-27
2022/09/10 10:15:30;;;;;;;;;;;;;;;;;;5014722;28;19913;-27
2022/09/10 10:17:56;;;;;;;;;;;;;;;;;;5014712;28;19942;-27
2022/09/10 10:20:22;;;;;;;;;;;;;;;;;;5017422;28;19924;-27
2022/09/10 10:22:48;;;;;;;;;;;;;;;;;;5018440;28;19914;-27
2022/09/10 10:25:14;;;;;;;;;;;;;;;;;;5018961;28;19910;-27
2022/09/10 10:27:40;;;;;;;;;;;;;;;;;;5018235;28;19925;-27
2022/09/10 10:30:06;;;;;;;;;;;;;;;;;;5018274;28;19936;-27
2022/09/10 10:32:33;;;;;;;;;;;;;;;;;;5018099;28;19913;-27
2022/09/10 10:34:59;;;;;;;;;;;;;;;;;;5018156;28;19991;-27
2022/09/10 10:37:25;;;;;;;;;;;;;;;;;;5018142;28;20001;-27
2022/09/10 10:39:51;;;;;;;;;;;;;;;;;;5018131;28;19909;-27
2022/09/10 10:42:18;;;;;;;;;;;;;;;;;;5017976;28;19952;-27
2022/09/10 10:44:44;;;;;;;;;;;;;;;;;;5018663;28;19917;-27
2022/09/10 10:47:10;;;;;;;;;;;;;;;;;;5017901;28;20260;-27
2022/09/10 10:49:36;;;;;;;;;;;;;;;;;;5017949;28;19945;-27
2022/09/10 10:52:02;;;;;;;;;;;;;;;;;;5017658;28;19917;-27
2022/09/10 10:54:28;;;;;;;;;;;;;;;;;;5018037;28;19924;-27
2022/09/10 10:56:55;;;;;;;;;;;;;;;;;;5018200;28;20292;-27
2022/09/10 10:59:22;;;;;;;;;;;;;;;;;;5018256;28;19909;-27
2022/09/10 11:01:48;;;;;;;;;;;;;;;;;;5017815;28;19924;-27
2022/09/10 11:04:14;;;;;;;;;;;;;;;;;;5017752;28;19925;-27
2022/09/10 11:06:40;;;;;;;;;;;;;;;;;;5018082;28;19924;-28
2022/09/10 11:09:06;;;;;;;;;;;;;;;;;;5017858;28;20256;-27
2022/09/10 11:11:32;;;;;;;;;;;;;;;;;;5017757;28;19920;-27
2022/09/10 11:13:58;;;;;;;;;;;;;;;;;;5017748;28;19939;-27
2022/09/10 11:16:24;;;;;;;;;;;;;;;;;;5018007;28;19925;-27
2022/09/10 11:18:50;;;;;;;;;;;;;;;;;;5018041;28;20256;-27
2022/09/10 11:21:16;;;;;;;;;;;;;;;;;;5017671;28;19948;-27
2022/09/10 11:23:44;;;;;;;;;;;;;;;;;;5017560;28;19909;-27
2022/09/10 11:26:11;;;;;;;;;;;;;;;;;;5016687;28;20352;-26
2022/09/10 11:28:37;;;;;;;;;;;;;;;;;;5017840;28;19979;-28
2022/09/10 11:31:03;;;;;;;;;;;;;;;;;;5017448;28;19956;-27
2022/09/10 11:33:29;;;;;;;;;;;;;;;;;;5017399;28;20256;-27
2022/09/10 11:35:55;;;;;;;;;;;;;;;;;;5017405;28;19910;-27
2022/09/10 11:38:22;;;;;;;;;;;;;;;;;;5017616;28;20260;-27
2022/09/10 11:40:50;;;;;;;;;;;;;;;;;;5017312;28;19914;-27
2022/09/10 11:43:16;;;;;;;;;;;;;;;;;;5017120;28;19992;-27
2022/09/10 11:45:42;;;;;;;;;;;;;;;;;;5017296;28;20004;-27
2022/09/10 11:48:09;;;;;;;;;;;;;;;;;;5017667;28;19925;-27
2022/09/10 11:50:35;;;;;;;;;;;;;;;;;;5017110;28;19940;-27
2022/09/10 11:53:01;;;;;;;;;;;;;;;;;;5017492;28;19969;-27
2022/09/10 11:55:27;;;;;;;;;;;;;;;;;;5017065;28;19918;-27
2022/09/10 11:57:53;;;;;;;;;;;;;;;;;;5017129;28;20427;-27
2022/09/10 12:00:19;;;;;;;;;;;;;;;;;;5016906;28;20260;-27
2022/09/10 12:02:45;;;;;;;;;;;;;;;;;;5016733;28;19922;-27
2022/09/10 12:05:11;;;;;;;;;;;;;;;;;;5016873;28;20311;-27
2022/09/10 12:07:37;;;;;;;;;;;;;;;;;;5017051;28;19918;-27
2022/09/10 12:10:04;;;;;;;;;;;;;;;;;;5016910;28;19960;-27
2022/09/10 12:12:30;;;;;;;;;;;;;;;;;;5016763;28;20020;-27
2022/09/10 12:14:56;;;;;;;;;;;;;;;;;;5016991;28;20244;-27
2022/09/10 12:17:22;;;;;;;;;;;;;;;;;;5017175;28;19913;-27
2022/09/10 12:19:48;;;;;;;;;;;;;;;;;;5016638;28;19913;-27
2022/09/10 12:22:14;;;;;;;;;;;;;;;;;;5016466;28;20004;-27
2022/09/10 12:24:40;;;;;;;;;;;;;;;;;;5016832;28;19909;-27
2022/09/10 12:27:06;;;;;;;;;;;;;;;;;;5016390;28;19992;-27
2022/09/10 12:29:32;;;;;;;;;;;;;;;;;;5016452;28;19992;-27
2022/09/10 12:31:58;;;;;;;;;;;;;;;;;;5016544;28;19945;-27
2022/09/10 12:34:25;;;;;;;;;;;;;;;;;;5016386;28;19913;-28
2022/09/10 12:36:51;;;;;;;;;;;;;;;;;;5016277;28;20308;-27
2022/09/10 12:39:17;;;;;;;;;;;;;;;;;;5016265;28;19909;-27
2022/09/10 12:41:43;;;;;;;;;;;;;;;;;;5015546;28;19913;-27
2022/09/10 12:44:09;;;;;;;;;;;;;;;;;;5016129;28;20352;-27
2022/09/10 12:46:35;;;;;;;;;;;;;;;;;;5016103;28;20048;-27
2022/09/10 12:49:01;;;;;;;;;;;;;;;;;;5016251;28;20018;-27
2022/09/10 12:51:27;;;;;;;;;;;;;;;;;;5016563;28;19914;-27
2022/09/10 12:53:53;;;;;;;;;;;;;;;;;;5015972;28;19936;-27
2022/09/10 12:56:20;;;;;;;;;;;;;;;;;;5015866;28;19967;-27
2022/09/10 12:58:46;;;;;;;;;;;;;;;;;;5015811;28;19920;-27
2022/09/10 13:01:12;;;;;;;;;;;;;;;;;;5016232;28;19917;-27
2022/09/10 13:03:38;;;;;;;;;;;;;;;;;;5015709;28;20272;-27
2022/09/10 13:06:04;;;;;;;;;;;;;;;;;;5016398;28;19917;-27
2022/09/10 13:08:30;;;;;;;;;;;;;;;;;;5015755;28;20275;-27
2022/09/10 13:11:01;;;;;;;;;;;;;;;;;;5015791;28;19910;-28
2022/09/10 13:13:28;;;;;;;;;;;;;;;;;;5015987;28;19972;-27
2022/09/10 13:15:54;;;;;;;;;;;;;;;;;;5015662;28;19963;-27
2022/09/10 13:18:20;;;;;;;;;;;;;;;;;;5015602;28;20015;-27
2022/09/10 13:20:46;;;;;;;;;;;;;;;;;;5016172;28;19914;-27
2022/09/10 13:23:12;;;;;;;;;;;;;;;;;;5015524;28;19910;-27
2022/09/10 13:25:39;;;;;;;;;;;;;;;;;;5015508;28;19925;-27
2022/09/10 13:28:05;;;;;;;;;;;;;;;;;;5015369;28;19917;-27
2022/09/10 13:30:31;;;;;;;;;;;;;;;;;;5015694;28;19914;-27
2022/09/10 13:32:57;;;;;;;;;;;;;;;;;;5015285;28;19909;-27
2022/09/10 13:35:23;;;;;;;;;;;;;;;;;;5015665;28;19972;-27
2022/09/10 13:37:49;;;;;;;;;;;;;;;;;;5015650;28;19960;-27
2022/09/10 13:40:16;;;;;;;;;;;;;;;;;;5015588;28;19910;-27
2022/09/10 13:42:42;;;;;;;;;;;;;;;;;;5015844;28;20009;-27
2022/09/10 13:45:08;;;;;;;;;;;;;;;;;;5015885;28;20008;-27
2022/09/10 13:47:34;;;;;;;;;;;;;;;;;;5015458;28;19944;-27
2022/09/10 13:50:00;;;;;;;;;;;;;;;;;;5015321;28;19984;-27
2022/09/10 13:52:27;;;;;;;;;;;;;;;;;;5015319;28;20063;-27
2022/09/10 13:54:54;;;;;;;;;;;;;;;;;;5019102;28;19948;-27
2022/09/10 13:57:20;;;;;;;;;;;;;;;;;;5019272;28;20402;-28
2022/09/10 13:59:45;;;;;;;;;;;;;;;;;;5019596;28;19988;-28
2022/09/10 14:02:11;;;;;;;;;;;;;;;;;;5019195;28;19925;-27
2022/09/10 14:04:37;;;;;;;;;;;;;;;;;;5019252;28;20383;-27
2022/09/10 14:07:03;;;;;;;;;;;;;;;;;;5019115;28;19917;-28
2022/09/10 14:09:31;;;;;;;;;;;;;;;;;;5019070;28;19913;-27
2022/09/10 14:11:58;;;;;;;;;;;;;;;;;;5019489;28;19921;-27
2022/09/10 14:14:24;;;;;;;;;;;;;;;;;;5018965;28;19910;-27
2022/09/10 14:16:50;;;;;;;;;;;;;;;;;;5018958;28;19913;-27
2022/09/10 14:19:16;;;;;;;;;;;;;;;;;;5019001;28;19946;-27
2022/09/10 14:21:42;;;;;;;;;;;;;;;;;;5018915;28;20008;-27
2022/09/10 14:24:10;;;;;;;;;;;;;;;;;;5018973;28;19913;-27
2022/09/10 14:26:36;;;;;;;;;;;;;;;;;;5019070;28;19909;-27
2022/09/10 14:29:03;;;;;;;;;;;;;;;;;;5018980;28;20012;-27
2022/09/10 14:31:29;;;;;;;;;;;;;;;;;;5018968;28;19925;-27
2022/09/10 14:33:55;;;;;;;;;;;;;;;;;;5017686;28;19909;-27
2022/09/10 14:36:21;;;;;;;;;;;;;;;;;;5018621;28;19921;-27
2022/09/10 14:38:47;;;;;;;;;;;;;;;;;;5018801;28;19909;-27
2022/09/10 14:41:13;;;;;;;;;;;;;;;;;;5018845;28;19917;-27
2022/09/10 14:43:39;;;;;;;;;;;;;;;;;;5018484;28;19941;-27
2022/09/10 14:46:06;;;;;;;;;;;;;;;;;;5018377;28;20348;-27
2022/09/10 14:48:34;;;;;;;;;;;;;;;;;;5018333;28;20349;-27
2022/09/10 14:51:00;;;;;;;;;;;;;;;;;;5018415;28;19940;-27
2022/09/10 14:53:26;;;;;;;;;;;;;;;;;;5018566;28;19913;-27
2022/09/10 14:55:52;;;;;;;;;;;;;;;;;;5018832;28;19995;-27
2022/09/10 14:58:18;;;;;;;;;;;;;;;;;;5018242;28;19909;-27
2022/09/10 15:00:44;;;;;;;;;;;;;;;;;;5018232;28;19924;-27
2022/09/10 15:03:10;;;;;;;;;;;;;;;;;;5018014;28;20272;-27
2022/09/10 15:05:38;;;;;;;;;;;;;;;;;;5017384;28;19914;-27
2022/09/10 15:08:04;;;;;;;;;;;;;;;;;;5018227;28;20256;-27
2022/09/10 15:10:30;;;;;;;;;;;;;;;;;;5018031;28;19992;-27
2022/09/10 15:12:56;;;;;;;;;;;;;;;;;;5017872;28;19964;-27
2022/09/10 15:15:23;;;;;;;;;;;;;;;;;;5017955;28;19964;-27
2022/09/10 15:17:49;;;;;;;;;;;;;;;;;;5017826;28;19914;-27
2022/09/10 15:20:15;;;;;;;;;;;;;;;;;;5018139;28;20313;-27
2022/09/10 15:22:41;;;;;;;;;;;;;;;;;;5017723;28;19925;-27
2022/09/10 15:25:07;;;;;;;;;;;;;;;;;;5017677;28;19916;-27
2022/09/10 15:27:33;;;;;;;;;;;;;;;;;;5017596;28;19983;-27
2022/09/10 15:29:59;;;;;;;;;;;;;;;;;;5017628;28;19910;-27
2022/09/10 15:32:25;;;;;;;;;;;;;;;;;;5018298;28;19925;-27
2022/09/10 15:34:51;;;;;;;;;;;;;;;;;;5017545;28;19917;-27
2022/09/10 15:37:17;;;;;;;;;;;;;;;;;;5017447;28;20025;-27
2022/09/10 15:39:43;;;;;;;;;;;;;;;;;;5017410;28;19921;-27
2022/09/10 15:42:10;;;;;;;;;;;;;;;;;;5017321;28;19913;-27
2022/09/10 15:44:36;;;;;;;;;;;;;;;;;;5017343;28;19968;-27
2022/09/10 15:47:02;;;;;;;;;;;;;;;;;;5017365;28;19917;-27
2022/09/10 15:49:28;;;;;;;;;;;;;;;;;;5017449;28;20306;-27
2022/09/10 15:51:54;;;;;;;;;;;;;;;;;;5017128;28;19909;-27
2022/09/10 15:54:20;;;;;;;;;;;;;;;;;;5017145;28;19972;-27
2022/09/10 15:56:46;;;;;;;;;;;;;;;;;;5017904;28;20329;-27
2022/09/10 15:59:15;;;;;;;;;;;;;;;;;;5017412;28;19964;-27
2022/09/10 16:01:41;;;;;;;;;;;;;;;;;;5017339;28;19914;-27
2022/09/10 16:04:08;;;;;;;;;;;;;;;;;;5016709;28;19921;-27
2022/09/10 16:06:36;;;;;;;;;;;;;;;;;;5017337;28;20307;-27
2022/09/10 16:09:02;;;;;;;;;;;;;;;;;;5017120;28;20318;-27
2022/09/10 16:11:29;;;;;;;;;;;;;;;;;;5016871;28;19936;-27
2022/09/10 16:13:56;;;;;;;;;;;;;;;;;;5016792;28;20004;-28
2022/09/10 16:16:22;;;;;;;;;;;;;;;;;;5017178;28;19952;-27
2022/09/10 16:18:51;;;;;;;;;;;;;;;;;;5016697;28;19909;-27
2022/09/10 16:21:21;;;;;;;;;;;;;;;;;;5016693;28;19921;-27
2022/09/10 16:23:47;;;;;;;;;;;;;;;;;;5016631;28;20264;-27
2022/09/10 16:26:16;;;;;;;;;;;;;;;;;;5017150;28;20395;-27
2022/09/10 16:28:42;;;;;;;;;;;;;;;;;;5016483;28;19925;-27
2022/09/10 16:31:08;;;;;;;;;;;;;;;;;;5017052;28;19975;-27
2022/09/10 16:33:34;;;;;;;;;;;;;;;;;;5016970;28;19913;-27
2022/09/10 16:36:00;;;;;;;;;;;;;;;;;;5016428;28;19913;-27
2022/09/10 16:38:26;;;;;;;;;;;;;;;;;;5016330;28;20008;-27